Time;durP1;ratioP1;P1;durP2;ratioP2;P2;SDS_P1;SDS_P2;PMS_P1;PMS_P2;Temp;Humidity;BMP_temperature;BMP_pressure;BME280_temperature;BME280_humidity;BME280_pressure;Samples;Min_cycle;Max_cycle;Signal;HPM_P1;HPM_P2
2023/11/10 00:00:51;;;;;;;;;;;9.10;73.30;;;;;;5091958;28;19920;-68
2023/11/10 00:03:17;;;;;;;;;;;9.10;73.60;;;;;;5092364;28;19911;-69
2023/11/10 00:05:43;;;;;;;;;;;9.10;73.50;;;;;;5093705;28;19973;-68
2023/11/10 00:08:13;;;;;;;;;;;9.20;73.60;;;;;;5109404;28;19920;-68
2023/11/10 00:10:39;;;;;;;;;;;9.20;73.40;;;;;;5093068;28;19945;-67
2023/11/10 00:13:05;;;;;;;;;;;9.20;73.20;;;;;;5093502;28;20027;-68
2023/11/10 00:15:31;;;;;;;;;;;9.20;73.30;;;;;;5093571;28;20125;-68
2023/11/10 00:17:57;;;;;;;;;;;9.30;73.40;;;;;;5109320;28;19916;-68
2023/11/10 00:20:23;;;;;;;;;;;9.30;73.30;;;;;;5091354;28;19924;-68
2023/11/10 00:22:49;;;;;;;;;;;9.30;74.10;;;;;;5092011;28;19924;-68
2023/11/10 00:25:14;;;;;;;;;;;9.30;73.30;;;;;;5109021;28;19912;-68
2023/11/10 00:27:40;;;;;;;;;;;9.30;73.40;;;;;;5109269;28;19920;-68
2023/11/10 00:30:07;;;;;;;;;;;9.30;73.50;;;;;;5108410;28;19916;-68
2023/11/10 00:32:36;;;;;;;;;;;9.30;72.80;;;;;;5093579;28;19916;-68
2023/11/10 00:35:03;;;;;;;;;;;9.30;73.50;;;;;;5091943;28;19990;-68
2023/11/10 00:37:30;;;;;;;;;;;9.20;73.20;;;;;;5108770;28;20019;-67
2023/11/10 00:39:57;;;;;;;;;;;9.30;73.50;;;;;;5108568;28;19962;-68
2023/11/10 00:42:23;;;;;;;;;;;9.30;73.50;;;;;;5092742;28;20426;-68
2023/11/10 00:44:51;;;;;;;;;;;9.30;72.90;;;;;;5108943;28;19915;-69
2023/11/10 00:47:17;;;;;;;;;;;9.30;73.60;;;;;;5108445;28;20042;-68
2023/11/10 00:49:42;;;;;;;;;;;9.30;73.60;;;;;;5093155;28;19912;-68
2023/11/10 00:52:08;;;;;;;;;;;9.30;73.60;;;;;;5091239;28;19920;-68
2023/11/10 00:54:34;;;;;;;;;;;9.30;73.60;;;;;;5093112;28;20353;-68
2023/11/10 00:57:00;;;;;;;;;;;9.30;73.60;;;;;;5093105;28;20014;-68
2023/11/10 00:59:26;;;;;;;;;;;9.30;73.50;;;;;;5091779;28;19912;-68
2023/11/10 01:01:52;;;;;;;;;;;9.30;73.50;;;;;;5112518;28;19920;-68
2023/11/10 01:04:18;;;;;;;;;;;9.30;73.60;;;;;;5095876;28;19912;-67
2023/11/10 01:06:44;;;;;;;;;;;9.30;73.70;;;;;;5097251;28;19924;-68
2023/11/10 01:09:12;;;;;;;;;;;9.30;73.80;;;;;;5096779;28;20025;-68
2023/11/10 01:11:38;;;;;;;;;;;9.30;73.80;;;;;;5096497;28;19973;-68
2023/11/10 01:14:04;;;;;;;;;;;9.30;73.80;;;;;;5112866;28;19919;-67
2023/11/10 01:16:30;;;;;;;;;;;9.30;73.80;;;;;;5112594;28;19927;-67
2023/11/10 01:18:56;;;;;;;;;;;9.30;73.60;;;;;;5096766;28;19919;-67
2023/11/10 01:21:23;;;;;;;;;;;9.30;74.60;;;;;;5094766;28;19966;-68
2023/11/10 01:23:50;;;;;;;;;;;9.40;73.70;;;;;;5095683;28;20364;-68
2023/11/10 01:26:16;;;;;;;;;;;9.40;73.70;;;;;;5095475;28;19920;-68
2023/11/10 01:28:42;;;;;;;;;;;9.40;73.70;;;;;;5096740;28;20091;-68
2023/11/10 01:31:09;;;;;;;;;;;9.40;73.80;;;;;;5096103;28;19920;-67
2023/11/10 01:33:35;;;;;;;;;;;9.40;73.80;;;;;;5112475;28;19912;-68
2023/11/10 01:36:01;;;;;;;;;;;9.40;73.80;;;;;;5096675;28;19927;-67
2023/11/10 01:38:28;;;;;;;;;;;9.40;73.20;;;;;;5096310;28;19919;-68
2023/11/10 01:40:54;;;;;;;;;;;9.50;73.60;;;;;;5094426;28;19923;-68
2023/11/10 01:43:21;;;;;;;;;;;9.50;73.70;;;;;;5112230;28;19912;-68
2023/11/10 01:45:48;;;;;;;;;;;9.50;73.10;;;;;;5096424;28;19927;-69
2023/11/10 01:48:14;;;;;;;;;;;9.50;73.60;;;;;;5112112;28;19912;-68
2023/11/10 01:50:41;;;;;;;;;;;9.60;73.10;;;;;;5094436;28;19923;-68
2023/11/10 01:53:09;;;;;;;;;;;9.60;73.60;;;;;;5094937;28;19928;-68
2023/11/10 01:55:36;;;;;;;;;;;9.60;73.70;;;;;;5096089;28;19918;-68
2023/11/10 01:58:02;;;;;;;;;;;9.60;73.60;;;;;;5095000;28;19920;-67
2023/11/10 02:00:30;;;;;;;;;;;9.60;73.60;;;;;;5111119;28;19920;-68
2023/11/10 02:03:14;;;;;;;;;;;9.60;73.50;;;;;;5096041;28;19920;-67
2023/11/10 02:05:40;;;;;;;;;;;9.60;73.50;;;;;;5077786;28;20410;-67
2023/11/10 02:08:09;;;;;;;;;;;9.60;73.70;;;;;;5094558;28;19915;-68
2023/11/10 02:10:37;;;;;;;;;;;9.60;73.60;;;;;;5093998;28;19915;-68
2023/11/10 02:13:03;;;;;;;;;;;9.60;73.70;;;;;;5110353;28;19920;-68
2023/11/10 02:15:28;;;;;;;;;;;9.70;73.90;;;;;;5095851;28;19916;-67
2023/11/10 02:17:55;;;;;;;;;;;9.70;73.90;;;;;;5111756;28;19916;-68
2023/11/10 02:20:21;;;;;;;;;;;9.70;73.80;;;;;;5110701;28;19912;-68
2023/11/10 02:22:47;;;;;;;;;;;9.70;73.90;;;;;;5094447;28;20387;-68
2023/11/10 02:25:14;;;;;;;;;;;9.70;73.80;;;;;;5095702;28;20368;-67
2023/11/10 02:27:40;;;;;;;;;;;9.80;73.90;;;;;;5094584;28;20319;-68
2023/11/10 02:30:07;;;;;;;;;;;9.80;73.70;;;;;;5093771;28;19927;-68
2023/11/10 02:32:33;;;;;;;;;;;9.80;73.60;;;;;;5095875;28;20030;-68
2023/11/10 02:35:00;;;;;;;;;;;9.80;73.70;;;;;;5094380;28;20031;-68
2023/11/10 02:37:26;;;;;;;;;;;9.80;73.90;;;;;;5095792;28;19976;-69
2023/11/10 02:39:52;;;;;;;;;;;9.80;74.00;;;;;;5093725;28;19916;-68
2023/11/10 02:42:17;;;;;;;;;;;9.80;74.00;;;;;;5095035;28;19922;-67
2023/11/10 02:44:43;;;;;;;;;;;9.90;74.10;;;;;;5095350;28;19926;-69
2023/11/10 02:47:09;;;;;;;;;;;9.90;74.20;;;;;;5095362;28;19920;-70
2023/11/10 02:49:35;;;;;;;;;;;9.80;74.30;;;;;;5110774;28;19920;-69
2023/11/10 02:52:01;;;;;;;;;;;9.90;74.40;;;;;;5094872;28;19922;-67
2023/11/10 02:54:27;;;;;;;;;;;9.90;74.30;;;;;;5093482;28;20002;-68
2023/11/10 02:56:53;;;;;;;;;;;9.90;74.30;;;;;;5094794;28;20391;-67
2023/11/10 02:59:19;;;;;;;;;;;9.90;74.30;;;;;;5093736;28;20416;-67
2023/11/10 03:01:44;;;;;;;;;;;9.90;74.40;;;;;;5094502;28;20014;-67
2023/11/10 03:04:10;;;;;;;;;;;10.00;74.40;;;;;;5094977;28;19912;-68
2023/11/10 03:06:36;;;;;;;;;;;10.00;74.30;;;;;;5110473;28;19920;-67
2023/11/10 03:09:02;;;;;;;;;;;10.00;74.50;;;;;;5094569;28;20433;-68
2023/11/10 03:11:28;;;;;;;;;;;10.00;74.40;;;;;;5092895;28;19927;-67
2023/11/10 03:13:54;;;;;;;;;;;10.00;74.40;;;;;;5094667;28;19912;-68
2023/11/10 03:16:40;;;;;;;;;;;10.00;73.90;;;;;;5093233;28;20010;-68
2023/11/10 03:19:06;;;;;;;;;;;10.00;74.40;;;;;;5076378;28;19911;-67
2023/11/10 03:21:32;;;;;;;;;;;10.00;74.60;;;;;;5109507;28;19927;-68
2023/11/10 03:23:58;;;;;;;;;;;10.10;74.70;;;;;;5094110;28;19912;-68
2023/11/10 03:26:24;;;;;;;;;;;10.00;74.70;;;;;;5110257;28;19933;-67
2023/11/10 03:28:50;;;;;;;;;;;10.00;74.80;;;;;;5094355;28;19999;-68
2023/11/10 03:31:16;;;;;;;;;;;10.10;75.00;;;;;;5093859;28;20292;-68
2023/11/10 03:33:42;;;;;;;;;;;10.00;74.80;;;;;;5110078;28;19916;-70
2023/11/10 03:36:09;;;;;;;;;;;10.10;75.00;;;;;;5109893;28;19916;-69
2023/11/10 03:38:35;;;;;;;;;;;10.10;75.00;;;;;;5094091;28;20415;-69
2023/11/10 03:41:01;;;;;;;;;;;10.10;75.20;;;;;;5093487;28;19916;-67
2023/11/10 03:43:28;;;;;;;;;;;10.10;75.40;;;;;;5094111;28;19955;-67
2023/11/10 03:45:55;;;;;;;;;;;10.00;75.40;;;;;;5094068;28;19951;-68
2023/11/10 03:48:22;;;;;;;;;;;10.10;75.60;;;;;;5109561;28;20292;-69
2023/11/10 03:50:48;;;;;;;;;;;10.10;75.40;;;;;;5093194;28;19962;-68
2023/11/10 03:53:14;;;;;;;;;;;10.10;75.60;;;;;;5075588;28;19916;-68
2023/11/10 03:55:40;;;;;;;;;;;10.10;75.50;;;;;;5092549;28;19935;-67
2023/11/10 03:58:25;;;;;;;;;;;10.10;75.60;;;;;;5109672;28;20011;-67
2023/11/10 04:00:51;;;;;;;;;;;10.10;75.60;;;;;;5091811;28;19920;-69
2023/11/10 04:03:16;;;;;;;;;;;10.10;75.70;;;;;;5093815;28;19919;-67
2023/11/10 04:05:44;;;;;;;;;;;10.10;75.70;;;;;;5109468;28;20364;-68
2023/11/10 04:08:11;;;;;;;;;;;10.10;75.70;;;;;;5092441;28;20394;-70
2023/11/10 04:10:55;;;;;;;;;;;10.10;75.60;;;;;;5092809;28;20406;-69
2023/11/10 04:13:21;;;;;;;;;;;10.10;75.70;;;;;;5092413;28;19920;-71
2023/11/10 04:15:46;;;;;;;;;;;10.10;75.70;;;;;;5093483;28;20337;-68
2023/11/10 04:18:12;;;;;;;;;;;10.10;75.70;;;;;;5109456;28;19994;-67
2023/11/10 04:20:39;;;;;;;;;;;10.10;75.70;;;;;;5091554;28;19961;-67
2023/11/10 04:23:05;;;;;;;;;;;10.10;75.70;;;;;;5091954;28;19962;-67
2023/11/10 04:25:31;;;;;;;;;;;10.10;76.00;;;;;;5093286;28;19916;-67
2023/11/10 04:28:00;;;;;;;;;;;10.10;75.40;;;;;;5093703;28;20354;-68
2023/11/10 04:30:28;;;;;;;;;;;10.10;76.00;;;;;;5108039;28;19916;-69
2023/11/10 04:32:54;;;;;;;;;;;10.10;76.10;;;;;;5092104;28;20399;-68
2023/11/10 04:35:20;;;;;;;;;;;10.10;76.00;;;;;;5092588;28;19912;-68
2023/11/10 04:37:46;;;;;;;;;;;10.00;75.90;;;;;;5092198;28;20069;-67
2023/11/10 04:40:12;;;;;;;;;;;10.10;76.00;;;;;;5107971;28;19920;-69
2023/11/10 04:42:39;;;;;;;;;;;10.10;75.40;;;;;;5091975;28;19965;-67
2023/11/10 04:45:05;;;;;;;;;;;10.10;75.90;;;;;;5108966;28;19959;-68
2023/11/10 04:47:31;;;;;;;;;;;10.10;75.80;;;;;;5091911;28;19912;-68
2023/11/10 04:49:57;;;;;;;;;;;10.10;75.90;;;;;;5108647;28;19930;-67
2023/11/10 04:52:23;;;;;;;;;;;10.10;75.90;;;;;;5092871;28;19948;-68
2023/11/10 04:54:51;;;;;;;;;;;10.10;75.80;;;;;;5093146;28;20002;-68
2023/11/10 04:57:17;;;;;;;;;;;10.10;75.80;;;;;;5093169;28;19966;-68
2023/11/10 04:59:47;;;;;;;;;;;10.10;75.90;;;;;;5074866;28;20376;-67
2023/11/10 05:02:13;;;;;;;;;;;10.00;75.60;;;;;;5108037;28;19942;-67
2023/11/10 05:04:39;;;;;;;;;;;10.10;75.60;;;;;;5108673;28;19924;-68
2023/11/10 05:07:09;;;;;;;;;;;10.10;75.70;;;;;;5093022;28;19955;-67
2023/11/10 05:09:35;;;;;;;;;;;10.10;75.70;;;;;;5091319;28;20356;-68
2023/11/10 05:12:00;;;;;;;;;;;10.10;75.90;;;;;;5091267;28;19920;-67
2023/11/10 05:14:27;;;;;;;;;;;10.10;75.90;;;;;;5092587;28;20028;-67
2023/11/10 05:16:53;;;;;;;;;;;10.10;75.80;;;;;;5092999;28;19924;-67
2023/11/10 05:19:18;;;;;;;;;;;10.10;75.80;;;;;;5091429;28;19957;-70
2023/11/10 05:21:44;;;;;;;;;;;10.10;75.90;;;;;;5090779;28;19916;-68
2023/11/10 05:24:10;;;;;;;;;;;10.00;75.90;;;;;;5092836;28;20436;-68
2023/11/10 05:26:37;;;;;;;;;;;10.00;76.10;;;;;;5092789;28;19916;-68
2023/11/10 05:29:03;;;;;;;;;;;10.00;76.00;;;;;;5092769;28;19961;-69
2023/11/10 05:31:29;;;;;;;;;;;10.00;75.60;;;;;;5092064;28;19930;-68
2023/11/10 05:33:56;;;;;;;;;;;10.00;76.40;;;;;;5107901;28;19919;-68
2023/11/10 05:36:25;;;;;;;;;;;10.00;76.50;;;;;;5091034;28;19969;-68
2023/11/10 05:38:50;;;;;;;;;;;10.00;76.50;;;;;;5091126;28;19920;-68
2023/11/10 05:41:18;;;;;;;;;;;10.00;76.40;;;;;;5092035;28;19947;-67
2023/11/10 05:43:44;;;;;;;;;;;10.00;75.90;;;;;;5092488;28;20018;-68
2023/11/10 05:46:09;;;;;;;;;;;10.00;76.50;;;;;;5094413;28;19928;-67
2023/11/10 05:48:35;;;;;;;;;;;10.00;76.50;;;;;;5096323;28;19912;-67
2023/11/10 05:53:47;;;;;;;;;;;10.00;76.40;;;;;;5096269;28;19922;-69
2023/11/10 05:56:13;;;;;;;;;;;10.00;76.40;;;;;;5094921;28;20019;-70
2023/11/10 05:58:39;;;;;;;;;;;9.90;76.50;;;;;;5096155;28;19998;-70
2023/11/10 06:01:04;;;;;;;;;;;9.90;76.50;;;;;;5095689;28;19920;-70
2023/11/10 06:03:31;;;;;;;;;;;9.90;76.60;;;;;;5094763;28;19918;-70
2023/11/10 06:05:57;;;;;;;;;;;9.90;76.60;;;;;;5077942;28;19920;-70
2023/11/10 06:08:24;;;;;;;;;;;9.90;76.60;;;;;;5077604;28;20003;-70
2023/11/10 06:10:52;;;;;;;;;;;9.90;76.70;;;;;;5093869;28;19920;-69
2023/11/10 06:13:20;;;;;;;;;;;9.90;76.60;;;;;;5094505;28;19916;-70
2023/11/10 06:15:47;;;;;;;;;;;9.90;76.70;;;;;;5094701;28;19927;-69
2023/11/10 06:18:12;;;;;;;;;;;9.90;76.90;;;;;;5094285;28;19919;-70
2023/11/10 06:20:38;;;;;;;;;;;9.90;76.70;;;;;;5095033;28;19915;-70
2023/11/10 06:23:04;;;;;;;;;;;9.90;76.60;;;;;;5077569;28;19998;-70
2023/11/10 06:25:30;;;;;;;;;;;9.90;76.50;;;;;;5094584;28;19912;-70
2023/11/10 06:27:56;;;;;;;;;;;9.90;76.60;;;;;;5095721;28;19916;-69
2023/11/10 06:30:22;;;;;;;;;;;9.90;76.40;;;;;;5093630;28;19931;-69
2023/11/10 06:32:48;;;;;;;;;;;9.90;75.70;;;;;;5094456;28;19965;-69
2023/11/10 06:35:14;;;;;;;;;;;9.90;76.40;;;;;;5095328;28;20351;-70
2023/11/10 06:37:40;;;;;;;;;;;9.90;76.30;;;;;;5095216;28;19920;-70
2023/11/10 06:40:07;;;;;;;;;;;9.90;75.70;;;;;;5093534;28;19916;-70
2023/11/10 06:42:33;;;;;;;;;;;10.00;76.00;;;;;;5095607;28;19916;-70
2023/11/10 06:45:19;;;;;;;;;;;10.00;76.20;;;;;;5077299;28;19942;-70
2023/11/10 06:47:45;;;;;;;;;;;10.00;76.10;;;;;;5095616;28;20361;-69
2023/11/10 06:50:11;;;;;;;;;;;10.00;76.20;;;;;;5093281;28;19922;-69
2023/11/10 06:52:37;;;;;;;;;;;10.10;76.20;;;;;;5095577;28;19916;-69
2023/11/10 06:55:03;;;;;;;;;;;10.00;76.20;;;;;;5093984;28;19920;-69
2023/11/10 06:57:29;;;;;;;;;;;10.00;75.60;;;;;;5094828;28;19959;-68
2023/11/10 06:59:55;;;;;;;;;;;10.00;76.40;;;;;;5095060;28;19938;-70
2023/11/10 07:02:22;;;;;;;;;;;10.10;76.40;;;;;;5094466;28;19920;-70
2023/11/10 07:04:49;;;;;;;;;;;10.10;76.30;;;;;;5093790;28;19919;-69
2023/11/10 07:07:15;;;;;;;;;;;10.10;76.20;;;;;;5076569;28;19942;-70
2023/11/10 07:09:41;;;;;;;;;;;10.10;76.10;;;;;;5094672;28;19947;-68
2023/11/10 07:12:08;;;;;;;;;;;10.10;76.20;;;;;;5094430;28;19950;-70
2023/11/10 07:14:34;;;;;;;;;;;10.10;76.20;;;;;;5094835;28;19978;-70
2023/11/10 07:17:01;;;;;;;;;;;10.20;76.10;;;;;;5095022;28;19926;-69
2023/11/10 07:19:27;;;;;;;;;;;10.20;76.20;;;;;;5094453;28;20411;-69
2023/11/10 07:21:53;;;;;;;;;;;10.20;76.10;;;;;;5092849;28;19920;-69
2023/11/10 07:24:19;;;;;;;;;;;10.30;76.20;;;;;;5093201;28;19919;-69
2023/11/10 07:26:44;;;;;;;;;;;10.30;76.20;;;;;;5093222;28;19961;-70
2023/11/10 07:29:11;;;;;;;;;;;10.30;76.20;;;;;;5093219;28;19912;-70
2023/11/10 07:31:37;;;;;;;;;;;10.30;76.20;;;;;;5092584;28;19924;-68
2023/11/10 07:34:04;;;;;;;;;;;10.30;76.20;;;;;;5094490;28;19912;-69
2023/11/10 07:36:30;;;;;;;;;;;10.30;76.20;;;;;;5092904;28;20350;-70
2023/11/10 07:38:56;;;;;;;;;;;10.40;76.30;;;;;;5075864;28;19916;-69
2023/11/10 07:41:22;;;;;;;;;;;10.40;76.20;;;;;;5093666;28;19919;-69
2023/11/10 07:43:48;;;;;;;;;;;10.40;76.10;;;;;;5094141;28;19915;-69
2023/11/10 07:46:15;;;;;;;;;;;10.40;76.30;;;;;;5093961;28;19920;-69
2023/11/10 07:48:41;;;;;;;;;;;10.50;76.20;;;;;;5092948;28;19959;-69
2023/11/10 07:51:08;;;;;;;;;;;10.50;76.30;;;;;;5092080;28;19954;-69
2023/11/10 07:53:35;;;;;;;;;;;10.50;76.40;;;;;;5093773;28;19919;-70
2023/11/10 07:56:01;;;;;;;;;;;10.40;76.30;;;;;;5092701;28;19927;-70
2023/11/10 07:58:27;;;;;;;;;;;10.40;76.50;;;;;;5093829;28;19916;-70
2023/11/10 08:00:54;;;;;;;;;;;10.40;76.60;;;;;;5092003;28;20006;-69
2023/11/10 08:03:20;;;;;;;;;;;10.40;76.50;;;;;;5093747;28;19911;-69
2023/11/10 08:05:46;;;;;;;;;;;10.30;76.40;;;;;;5093954;28;19926;-70
2023/11/10 08:08:13;;;;;;;;;;;10.30;76.50;;;;;;5093633;28;19919;-69
2023/11/10 08:10:39;;;;;;;;;;;10.30;76.60;;;;;;5090938;28;19916;-70
2023/11/10 08:13:04;;;;;;;;;;;10.40;76.60;;;;;;5093653;28;20003;-68
2023/11/10 08:15:30;;;;;;;;;;;10.40;76.50;;;;;;5093789;28;20002;-70
2023/11/10 08:17:56;;;;;;;;;;;10.40;76.50;;;;;;5093599;28;19916;-70
2023/11/10 08:20:24;;;;;;;;;;;10.40;76.40;;;;;;5091289;28;19916;-70
2023/11/10 08:22:50;;;;;;;;;;;10.40;76.40;;;;;;5093407;28;19923;-69
2023/11/10 08:25:15;;;;;;;;;;;10.50;76.50;;;;;;5092156;28;19912;-70
2023/11/10 08:27:41;;;;;;;;;;;10.40;76.40;;;;;;5092279;28;19923;-69
2023/11/10 08:30:11;;;;;;;;;;;10.50;76.30;;;;;;5092710;28;20422;-70
2023/11/10 08:32:37;;;;;;;;;;;10.50;76.20;;;;;;5092317;28;19915;-69
2023/11/10 08:35:03;;;;;;;;;;;10.50;76.30;;;;;;5093238;28;20381;-70
2023/11/10 08:37:30;;;;;;;;;;;10.60;75.80;;;;;;5092125;28;20333;-70
2023/11/10 08:39:56;;;;;;;;;;;10.60;76.30;;;;;;5092919;28;20501;-70
2023/11/10 08:42:22;;;;;;;;;;;10.60;76.00;;;;;;5093019;28;19916;-69
2023/11/10 08:44:49;;;;;;;;;;;10.70;76.10;;;;;;5093305;28;20360;-70
2023/11/10 08:47:16;;;;;;;;;;;10.80;75.90;;;;;;5091683;28;19916;-69
2023/11/10 08:50:01;;;;;;;;;;;10.80;75.80;;;;;;5091845;28;19916;-70
2023/11/10 08:52:28;;;;;;;;;;;10.90;75.60;;;;;;5092943;28;19916;-70
2023/11/10 08:54:55;;;;;;;;;;;10.90;75.50;;;;;;5091865;28;19916;-70
2023/11/10 08:57:21;;;;;;;;;;;11.00;75.30;;;;;;5091884;28;19924;-70
2023/11/10 08:59:47;;;;;;;;;;;11.10;75.20;;;;;;5091888;28;20273;-69
2023/11/10 09:02:13;;;;;;;;;;;11.20;75.00;;;;;;5091168;28;19965;-69
2023/11/10 09:04:39;;;;;;;;;;;11.20;74.90;;;;;;5091818;28;19912;-70
2023/11/10 09:07:05;;;;;;;;;;;11.30;74.80;;;;;;5093230;28;20010;-69
2023/11/10 09:09:31;;;;;;;;;;;11.30;74.80;;;;;;5091349;28;19912;-69
2023/11/10 09:11:57;;;;;;;;;;;11.30;74.70;;;;;;5092686;28;19930;-70
2023/11/10 09:14:23;;;;;;;;;;;11.40;74.70;;;;;;5091521;28;19912;-70
2023/11/10 09:16:49;;;;;;;;;;;11.40;74.70;;;;;;5091659;28;20003;-70
2023/11/10 09:19:15;;;;;;;;;;;11.50;74.80;;;;;;5092814;28;19915;-70
2023/11/10 09:21:41;;;;;;;;;;;11.50;74.40;;;;;;5093054;28;20330;-70
2023/11/10 09:24:07;;;;;;;;;;;11.70;74.40;;;;;;5096906;28;19912;-70
2023/11/10 09:26:34;;;;;;;;;;;11.70;74.00;;;;;;5095583;28;20030;-70
2023/11/10 09:28:59;;;;;;;;;;;11.80;73.70;;;;;;5097101;28;19959;-69
2023/11/10 09:31:25;;;;;;;;;;;11.90;73.90;;;;;;5096175;28;19920;-70
2023/11/10 09:33:53;;;;;;;;;;;12.00;73.60;;;;;;5095563;28;19912;-69
2023/11/10 09:36:19;;;;;;;;;;;12.10;73.40;;;;;;5095569;28;20305;-70
2023/11/10 09:38:45;;;;;;;;;;;12.10;73.10;;;;;;5095208;28;19912;-69
2023/11/10 09:41:16;;;;;;;;;;;12.10;72.30;;;;;;5094630;28;19927;-69
2023/11/10 09:44:01;;;;;;;;;;;12.10;72.90;;;;;;5096562;28;19939;-69
2023/11/10 09:46:27;;;;;;;;;;;12.10;72.80;;;;;;5095206;28;19920;-69
2023/11/10 09:48:54;;;;;;;;;;;12.30;72.50;;;;;;5095084;28;19912;-70
2023/11/10 09:51:21;;;;;;;;;;;12.50;72.10;;;;;;5077389;28;19928;-70
2023/11/10 09:53:47;;;;;;;;;;;12.70;71.40;;;;;;5096347;28;19969;-70
2023/11/10 09:56:14;;;;;;;;;;;12.90;71.10;;;;;;5094902;28;19920;-70
2023/11/10 09:58:40;;;;;;;;;;;13.10;70.00;;;;;;5094912;28;20019;-70
2023/11/10 10:01:06;;;;;;;;;;;13.20;69.70;;;;;;5094271;28;20007;-70
2023/11/10 10:03:33;;;;;;;;;;;13.20;69.60;;;;;;5095994;28;20011;-69
2023/11/10 10:06:20;;;;;;;;;;;13.10;70.20;;;;;;5094834;28;20319;-70
2023/11/10 10:08:46;;;;;;;;;;;13.10;70.10;;;;;;5096021;28;20258;-70
2023/11/10 10:11:15;;;;;;;;;;;13.10;70.20;;;;;;5095508;28;19934;-69
2023/11/10 10:13:41;;;;;;;;;;;13.10;70.20;;;;;;5094781;28;20011;-69
2023/11/10 10:16:10;;;;;;;;;;;13.10;70.30;;;;;;5094586;28;20385;-69
2023/11/10 10:18:55;;;;;;;;;;;13.10;70.10;;;;;;5095807;28;20392;-69
2023/11/10 10:21:21;;;;;;;;;;;13.10;70.20;;;;;;5093991;28;19959;-70
2023/11/10 10:23:49;;;;;;;;;;;13.00;69.60;;;;;;5095627;28;19943;-68
2023/11/10 10:26:15;;;;;;;;;;;12.80;70.20;;;;;;5095827;28;19920;-70
2023/11/10 10:28:43;;;;;;;;;;;12.80;70.50;;;;;;5095675;28;19935;-69
2023/11/10 10:31:11;;;;;;;;;;;12.70;70.40;;;;;;5093825;28;19920;-70
2023/11/10 10:33:37;;;;;;;;;;;12.60;70.70;;;;;;5094523;28;19939;-69
2023/11/10 10:36:03;;;;;;;;;;;12.60;70.80;;;;;;5095409;28;20398;-68
2023/11/10 10:38:33;;;;;;;;;;;12.60;70.70;;;;;;5095249;28;19912;-70
2023/11/10 10:41:02;;;;;;;;;;;12.60;70.80;;;;;;5093237;28;19920;-70
2023/11/10 10:43:29;;;;;;;;;;;12.60;70.70;;;;;;5094031;28;19934;-69
2023/11/10 10:45:56;;;;;;;;;;;12.50;70.80;;;;;;5094003;28;19924;-69
2023/11/10 10:48:22;;;;;;;;;;;12.60;70.70;;;;;;5093961;28;20284;-69
2023/11/10 10:50:49;;;;;;;;;;;12.60;70.60;;;;;;5093182;28;19920;-69
2023/11/10 10:53:17;;;;;;;;;;;12.60;70.40;;;;;;5077149;28;20326;-69
2023/11/10 10:55:44;;;;;;;;;;;12.60;70.50;;;;;;5093963;28;19912;-70
2023/11/10 10:58:11;;;;;;;;;;;12.70;70.70;;;;;;5093802;28;20279;-70
2023/11/10 11:00:37;;;;;;;;;;;12.70;70.70;;;;;;5093053;28;19916;-70
2023/11/10 11:03:17;;;;;;;;;;;12.80;70.80;;;;;;5094990;28;19920;-69
2023/11/10 11:06:12;;;;;;;;;;;12.80;70.50;;;;;;5093750;28;19973;-69
2023/11/10 11:09:19;;;;;;;;;;;12.80;70.60;;;;;;5094716;28;20007;-68
2023/11/10 11:11:55;;;;;;;;;;;12.70;70.70;;;;;;5092994;28;19926;-70
2023/11/10 11:15:00;;;;;;;;;;;12.60;70.80;;;;;;5095208;28;19915;-70
2023/11/10 11:17:46;;;;;;;;;;;12.60;71.00;;;;;;5094858;28;19919;-70
2023/11/10 11:20:15;;;;;;;;;;;12.60;71.10;;;;;;5093933;28;19916;-69
2023/11/10 11:22:41;;;;;;;;;;;12.60;71.10;;;;;;5093640;28;19920;-69
2023/11/10 11:25:09;;;;;;;;;;;12.60;71.20;;;;;;5076360;28;19922;-70
2023/11/10 11:27:35;;;;;;;;;;;12.60;71.10;;;;;;5094880;28;19948;-70
2023/11/10 11:30:20;;;;;;;;;;;12.50;71.30;;;;;;5093178;28;19915;-69
2023/11/10 11:32:46;;;;;;;;;;;12.40;71.50;;;;;;5094717;28;19916;-69
2023/11/10 11:35:17;;;;;;;;;;;12.40;71.90;;;;;;5094257;28;19927;-69
2023/11/10 11:37:44;;;;;;;;;;;12.40;72.00;;;;;;5093435;28;19923;-70
2023/11/10 11:40:11;;;;;;;;;;;12.40;72.00;;;;;;5093361;28;19919;-70
2023/11/10 11:42:55;;;;;;;;;;;12.40;71.50;;;;;;5093135;28;19923;-70
2023/11/10 11:45:22;;;;;;;;;;;12.40;72.10;;;;;;5075759;28;19927;-70
2023/11/10 11:47:49;;;;;;;;;;;12.30;72.70;;;;;;5094446;28;19916;-70
2023/11/10 11:50:15;;;;;;;;;;;12.30;72.50;;;;;;5092191;28;20018;-68
2023/11/10 11:52:41;;;;;;;;;;;12.40;72.60;;;;;;5092839;28;20013;-70
2023/11/10 11:55:07;;;;;;;;;;;12.40;72.70;;;;;;5092480;28;19938;-70
2023/11/10 11:57:35;;;;;;;;;;;12.40;72.00;;;;;;5092895;28;19923;-69
2023/11/10 12:00:08;;;;;;;;;;;12.40;72.70;;;;;;5092661;28;19951;-69
2023/11/10 12:02:55;;;;;;;;;;;12.20;73.40;;;;;;5093978;28;20381;-70
2023/11/10 12:05:21;;;;;;;;;;;12.10;73.70;;;;;;5093677;28;20312;-69
2023/11/10 12:07:48;;;;;;;;;;;12.10;73.60;;;;;;5092760;28;19927;-68
2023/11/10 12:10:15;;;;;;;;;;;12.10;74.40;;;;;;5091706;28;19919;-70
2023/11/10 12:12:41;;;;;;;;;;;12.00;74.30;;;;;;5092493;28;19931;-69
2023/11/10 12:15:10;;;;;;;;;;;12.10;74.50;;;;;;5092487;28;19912;-70
2023/11/10 12:17:37;;;;;;;;;;;12.10;74.30;;;;;;5093867;28;19920;-70
2023/11/10 12:20:04;;;;;;;;;;;12.00;74.20;;;;;;5092974;28;19912;-70
2023/11/10 12:22:30;;;;;;;;;;;12.00;74.10;;;;;;5093723;28;19923;-69
2023/11/10 12:25:15;;;;;;;;;;;11.90;75.00;;;;;;5092365;28;19912;-70
2023/11/10 12:27:40;;;;;;;;;;;11.90;75.00;;;;;;5092356;28;19926;-70
2023/11/10 12:30:07;;;;;;;;;;;11.80;75.10;;;;;;5092863;28;19916;-69
2023/11/10 12:32:32;;;;;;;;;;;11.80;75.00;;;;;;5098757;28;20273;-69
2023/11/10 12:34:58;;;;;;;;;;;11.80;75.30;;;;;;5113615;28;19957;-70
2023/11/10 12:37:26;;;;;;;;;;;11.80;75.30;;;;;;5113872;28;20399;-70
2023/11/10 12:39:51;;;;;;;;;;;11.80;75.10;;;;;;5112301;28;19950;-70
2023/11/10 12:42:17;;;;;;;;;;;11.80;75.20;;;;;;5113346;28;20331;-69
2023/11/10 12:44:43;;;;;;;;;;;11.70;74.90;;;;;;5112421;28;19976;-68
2023/11/10 12:47:09;;;;;;;;;;;11.70;75.60;;;;;;5113390;28;20333;-70
2023/11/10 12:49:35;;;;;;;;;;;11.70;76.10;;;;;;5112152;28;20394;-69
2023/11/10 12:52:03;;;;;;;;;;;11.60;77.00;;;;;;5111704;28;20425;-69
2023/11/10 12:54:29;;;;;;;;;;;11.60;76.00;;;;;;5112086;28;19920;-70
2023/11/10 12:56:59;;;;;;;;;;;11.60;76.00;;;;;;5112971;28;20006;-70
2023/11/10 12:59:43;;;;;;;;;;;11.60;76.30;;;;;;5112251;28;19916;-69
2023/11/10 13:02:09;;;;;;;;;;;11.50;76.50;;;;;;5112999;28;19919;-70
2023/11/10 13:04:35;;;;;;;;;;;11.60;76.50;;;;;;5113407;28;20376;-70
2023/11/10 13:07:01;;;;;;;;;;;11.60;76.30;;;;;;5113526;28;19919;-68
2023/11/10 13:09:29;;;;;;;;;;;11.60;76.40;;;;;;5113059;28;19958;-70
2023/11/10 13:11:56;;;;;;;;;;;11.60;76.30;;;;;;5094880;28;20287;-69
2023/11/10 13:14:21;;;;;;;;;;;11.70;76.20;;;;;;5094918;28;19912;-70
2023/11/10 13:16:47;;;;;;;;;;;11.70;76.30;;;;;;5112029;28;19920;-69
2023/11/10 13:19:14;;;;;;;;;;;11.60;76.40;;;;;;5094828;28;19971;-70
2023/11/10 13:21:40;;;;;;;;;;;11.50;75.90;;;;;;5111235;28;19923;-70
2023/11/10 13:24:07;;;;;;;;;;;11.50;76.40;;;;;;5113121;28;19935;-69
2023/11/10 13:26:33;;;;;;;;;;;11.50;76.30;;;;;;5111740;28;19963;-70
2023/11/10 13:28:59;;;;;;;;;;;11.60;76.60;;;;;;5112038;28;19943;-68
2023/11/10 13:31:31;;;;;;;;;;;11.60;76.40;;;;;;5112379;28;20399;-69
2023/11/10 13:33:58;;;;;;;;;;;11.50;76.70;;;;;;5112134;28;19911;-70
2023/11/10 13:36:25;;;;;;;;;;;11.50;76.60;;;;;;5111709;28;19962;-70
2023/11/10 13:38:52;;;;;;;;;;;11.50;76.60;;;;;;5112760;28;19916;-70
2023/11/10 13:41:18;;;;;;;;;;;11.50;76.80;;;;;;5111437;28;20290;-69
2023/11/10 13:43:44;;;;;;;;;;;11.50;76.80;;;;;;5104639;28;20325;-68
2023/11/10 13:46:10;;;;;;;;;;;11.50;76.80;;;;;;5082136;28;20027;-69
2023/11/10 13:48:36;;;;;;;;;;;11.50;76.60;;;;;;5091161;28;19923;-69
2023/11/10 13:51:04;;;;;;;;;;;11.40;76.60;;;;;;5090728;28;19920;-70
2023/11/10 13:53:30;;;;;;;;;;;11.40;76.10;;;;;;5092239;28;19924;-70
2023/11/10 13:55:56;;;;;;;;;;;11.40;76.80;;;;;;5092648;28;20371;-70
2023/11/10 13:58:22;;;;;;;;;;;11.40;76.90;;;;;;5074408;28;19981;-68
2023/11/10 14:00:49;;;;;;;;;;;11.40;76.90;;;;;;5090558;28;19965;-70
2023/11/10 14:03:16;;;;;;;;;;;11.40;76.90;;;;;;5091158;28;19912;-68
2023/11/10 14:05:42;;;;;;;;;;;11.40;76.70;;;;;;5074427;28;19912;-69
2023/11/10 14:08:09;;;;;;;;;;;11.40;76.90;;;;;;5092272;28;19955;-69
2023/11/10 14:10:35;;;;;;;;;;;11.40;76.90;;;;;;5077186;28;19916;-69
2023/11/10 14:13:01;;;;;;;;;;;11.30;77.10;;;;;;5096079;28;19923;-69
2023/11/10 14:15:27;;;;;;;;;;;11.30;77.20;;;;;;5094463;28;19977;-70
2023/11/10 14:17:54;;;;;;;;;;;11.30;77.20;;;;;;5077697;28;19955;-69
2023/11/10 14:20:21;;;;;;;;;;;11.30;77.20;;;;;;5093862;28;20006;-70
2023/11/10 14:22:47;;;;;;;;;;;11.30;77.10;;;;;;5094894;28;19916;-70
2023/11/10 14:25:13;;;;;;;;;;;11.40;76.90;;;;;;5095633;28;20016;-69